Aviation Digital Data Service (ADDS)

Output produced by METARs form (0726 UTC 06 March 2015)
found at http://www.aviationweather.gov/adds/metars/
 
KGED 060654Z AUTO 35006KT 9SM -SN CLR M07/M12 A3043 RMK AO2 SLP303 P0000 T10721122 $